sensor_id;sensor_type;location;lat;lon;timestamp;pressure;altitude;pressure_sealevel;temperature;humidity
40372;BME280;28564;53.346;-6.554;2024-03-22T00:01:08;101105.23;;;11.93;52.80
40372;BME280;28564;53.346;-6.554;2024-03-22T00:03:36;101116.64;;;12.17;52.83
40372;BME280;28564;53.346;-6.554;2024-03-22T00:06:04;101117.39;;;11.92;52.87
40372;BME280;28564;53.346;-6.554;2024-03-22T00:08:31;101110.05;;;12.40;52.88
40372;BME280;28564;53.346;-6.554;2024-03-22T00:10:59;101112.63;;;12.19;52.89
40372;BME280;28564;53.346;-6.554;2024-03-22T00:13:26;101114.77;;;12.41;52.67
40372;BME280;28564;53.346;-6.554;2024-03-22T00:15:53;101121.11;;;12.19;52.57
40372;BME280;28564;53.346;-6.554;2024-03-22T00:18:20;101128.72;;;12.37;52.57
40372;BME280;28564;53.346;-6.554;2024-03-22T00:20:47;101118.33;;;12.30;52.46
40372;BME280;28564;53.346;-6.554;2024-03-22T00:23:14;101125.69;;;12.23;52.46
40372;BME280;28564;53.346;-6.554;2024-03-22T00:25:42;101116.44;;;12.16;52.31
40372;BME280;28564;53.346;-6.554;2024-03-22T00:28:09;101116.81;;;12.06;52.41
40372;BME280;28564;53.346;-6.554;2024-03-22T00:30:36;101124.57;;;12.00;52.24
40372;BME280;28564;53.346;-6.554;2024-03-22T00:33:04;101113.33;;;11.92;51.98
40372;BME280;28564;53.346;-6.554;2024-03-22T00:35:31;101124.56;;;11.86;52.26
40372;BME280;28564;53.346;-6.554;2024-03-22T00:37:59;101121.55;;;11.82;52.10
40372;BME280;28564;53.346;-6.554;2024-03-22T00:40:26;101135.90;;;11.82;51.61
40372;BME280;28564;53.346;-6.554;2024-03-22T00:42:53;101142.32;;;11.78;51.16
40372;BME280;28564;53.346;-6.554;2024-03-22T00:45:20;101143.14;;;11.47;51.01
40372;BME280;28564;53.346;-6.554;2024-03-22T00:47:48;101129.87;;;11.66;51.07
40372;BME280;28564;53.346;-6.554;2024-03-22T00:50:15;101131.61;;;11.61;50.94
40372;BME280;28564;53.346;-6.554;2024-03-22T00:52:43;101130.86;;;11.61;50.76
40372;BME280;28564;53.346;-6.554;2024-03-22T00:55:10;101139.67;;;11.56;50.72
40372;BME280;28564;53.346;-6.554;2024-03-22T00:57:37;101140.85;;;11.52;50.74
40372;BME280;28564;53.346;-6.554;2024-03-22T01:00:05;101136.81;;;11.71;50.82
40372;BME280;28564;53.346;-6.554;2024-03-22T01:02:33;101138.61;;;11.47;50.94
40372;BME280;28564;53.346;-6.554;2024-03-22T01:05:00;101139.89;;;11.39;51.12
40372;BME280;28564;53.346;-6.554;2024-03-22T01:07:27;101135.77;;;11.85;51.31
40372;BME280;28564;53.346;-6.554;2024-03-22T01:09:55;101134.57;;;11.33;51.47
40372;BME280;28564;53.346;-6.554;2024-03-22T01:12:22;101131.30;;;11.31;51.56
40372;BME280;28564;53.346;-6.554;2024-03-22T01:14:50;101132.53;;;11.48;51.66
40372;BME280;28564;53.346;-6.554;2024-03-22T01:17:17;101131.29;;;11.43;51.80
40372;BME280;28564;53.346;-6.554;2024-03-22T01:19:44;101128.26;;;11.17;51.86
40372;BME280;28564;53.346;-6.554;2024-03-22T01:22:11;101125.98;;;11.13;51.84
40372;BME280;28564;53.346;-6.554;2024-03-22T01:24:38;101129.43;;;11.61;51.80
40372;BME280;28564;53.346;-6.554;2024-03-22T01:27:05;101135.77;;;11.28;51.74
40372;BME280;28564;53.346;-6.554;2024-03-22T01:29:33;101135.72;;;11.20;51.89
40372;BME280;28564;53.346;-6.554;2024-03-22T01:32:00;101134.32;;;10.90;52.00
40372;BME280;28564;53.346;-6.554;2024-03-22T01:34:28;101128.92;;;11.33;52.08
40372;BME280;28564;53.346;-6.554;2024-03-22T01:36:56;101125.45;;;11.30;52.10
40372;BME280;28564;53.346;-6.554;2024-03-22T01:39:22;101126.46;;;10.74;52.13
40372;BME280;28564;53.346;-6.554;2024-03-22T01:41:50;101127.41;;;10.68;52.07
40372;BME280;28564;53.346;-6.554;2024-03-22T01:44:17;101128.34;;;10.87;52.03
40372;BME280;28564;53.346;-6.554;2024-03-22T01:46:46;101135.70;;;11.11;52.06
40372;BME280;28564;53.346;-6.554;2024-03-22T01:49:15;101137.04;;;10.56;52.09
40372;BME280;28564;53.346;-6.554;2024-03-22T01:51:43;101134.37;;;10.79;52.02
40372;BME280;28564;53.346;-6.554;2024-03-22T01:54:10;101127.69;;;11.03;51.94
40372;BME280;28564;53.346;-6.554;2024-03-22T01:56:37;101127.42;;;10.99;51.92
40372;BME280;28564;53.346;-6.554;2024-03-22T01:59:05;101122.05;;;11.00;51.86
40372;BME280;28564;53.346;-6.554;2024-03-22T02:01:33;101122.78;;;10.75;51.78
40372;BME280;28564;53.346;-6.554;2024-03-22T02:04:02;101124.65;;;11.02;51.71
40372;BME280;28564;53.346;-6.554;2024-03-22T02:06:30;101121.78;;;10.76;51.73
40372;BME280;28564;53.346;-6.554;2024-03-22T02:08:58;101122.81;;;10.78;51.68
40372;BME280;28564;53.346;-6.554;2024-03-22T02:11:26;101122.57;;;10.76;51.59
40372;BME280;28564;53.346;-6.554;2024-03-22T02:13:54;101124.44;;;10.69;51.67
40372;BME280;28564;53.346;-6.554;2024-03-22T02:16:21;101127.79;;;10.63;51.74
40372;BME280;28564;53.346;-6.554;2024-03-22T02:18:48;101129.24;;;10.59;51.71
40372;BME280;28564;53.346;-6.554;2024-03-22T02:21:15;101136.63;;;10.81;51.80
40372;BME280;28564;53.346;-6.554;2024-03-22T02:23:42;101138.58;;;10.73;51.89
40372;BME280;28564;53.346;-6.554;2024-03-22T02:26:09;101135.21;;;10.44;51.93
40372;BME280;28564;53.346;-6.554;2024-03-22T02:28:36;101131.65;;;10.70;51.85
40372;BME280;28564;53.346;-6.554;2024-03-22T02:31:04;101130.35;;;10.65;51.91
40372;BME280;28564;53.346;-6.554;2024-03-22T02:33:31;101126.87;;;10.64;51.79
40372;BME280;28564;53.346;-6.554;2024-03-22T02:35:59;101124.64;;;10.60;51.75
40372;BME280;28564;53.346;-6.554;2024-03-22T02:38:26;101124.62;;;10.55;51.77
40372;BME280;28564;53.346;-6.554;2024-03-22T02:40:54;101127.03;;;10.49;51.83
40372;BME280;28564;53.346;-6.554;2024-03-22T02:43:21;101114.34;;;10.44;51.85
40372;BME280;28564;53.346;-6.554;2024-03-22T02:45:48;101119.82;;;10.39;51.85
40372;BME280;28564;53.346;-6.554;2024-03-22T02:48:15;101120.41;;;10.37;51.82
40372;BME280;28564;53.346;-6.554;2024-03-22T02:50:42;101121.51;;;10.36;51.73
40372;BME280;28564;53.346;-6.554;2024-03-22T02:53:10;101128.28;;;10.37;51.69
40372;BME280;28564;53.346;-6.554;2024-03-22T02:55:38;101130.27;;;10.36;51.60
40372;BME280;28564;53.346;-6.554;2024-03-22T02:58:06;101129.52;;;10.38;51.46
40372;BME280;28564;53.346;-6.554;2024-03-22T03:00:36;101134.95;;;10.41;51.33
40372;BME280;28564;53.346;-6.554;2024-03-22T03:03:04;101133.81;;;10.36;51.09
40372;BME280;28564;53.346;-6.554;2024-03-22T03:05:32;101137.35;;;10.30;51.06
40372;BME280;28564;53.346;-6.554;2024-03-22T03:07:59;101131.49;;;10.26;51.07
40372;BME280;28564;53.346;-6.554;2024-03-22T03:10:26;101130.19;;;10.21;50.90
40372;BME280;28564;53.346;-6.554;2024-03-22T03:12:54;101133.61;;;10.17;50.43
40372;BME280;28564;53.346;-6.554;2024-03-22T03:15:21;101132.71;;;10.11;50.17
40372;BME280;28564;53.346;-6.554;2024-03-22T03:17:49;101141.95;;;10.54;49.86
40372;BME280;28564;53.346;-6.554;2024-03-22T03:20:17;101141.40;;;10.04;49.60
40372;BME280;28564;53.346;-6.554;2024-03-22T03:22:45;101141.53;;;9.95;49.33
40372;BME280;28564;53.346;-6.554;2024-03-22T03:25:13;101135.69;;;9.94;49.39
40372;BME280;28564;53.346;-6.554;2024-03-22T03:27:40;101135.07;;;10.08;49.26
40372;BME280;28564;53.346;-6.554;2024-03-22T03:30:08;101132.40;;;9.80;49.20
40372;BME280;28564;53.346;-6.554;2024-03-22T03:32:35;101132.70;;;9.79;49.30
40372;BME280;28564;53.346;-6.554;2024-03-22T03:35:03;101138.50;;;9.80;49.36
40372;BME280;28564;53.346;-6.554;2024-03-22T03:37:31;101132.06;;;9.85;49.44
40372;BME280;28564;53.346;-6.554;2024-03-22T03:39:58;101130.66;;;9.89;49.49
40372;BME280;28564;53.346;-6.554;2024-03-22T03:42:25;101131.66;;;9.90;49.56
40372;BME280;28564;53.346;-6.554;2024-03-22T03:44:52;101132.42;;;10.13;49.50
40372;BME280;28564;53.346;-6.554;2024-03-22T03:47:19;101133.37;;;9.88;49.48
40372;BME280;28564;53.346;-6.554;2024-03-22T03:49:47;101134.52;;;9.79;49.67
40372;BME280;28564;53.346;-6.554;2024-03-22T03:52:19;101132.35;;;9.72;49.75
40372;BME280;28564;53.346;-6.554;2024-03-22T03:54:46;101139.87;;;10.15;49.79
40372;BME280;28564;53.346;-6.554;2024-03-22T03:57:14;101133.84;;;9.64;49.84
40372;BME280;28564;53.346;-6.554;2024-03-22T03:59:41;101139.22;;;9.76;50.01
40372;BME280;28564;53.346;-6.554;2024-03-22T04:02:08;101134.56;;;9.97;50.08
40372;BME280;28564;53.346;-6.554;2024-03-22T04:04:35;101136.24;;;9.96;50.09
40372;BME280;28564;53.346;-6.554;2024-03-22T04:07:03;101138.87;;;9.65;50.09
40372;BME280;28564;53.346;-6.554;2024-03-22T04:09:30;101147.45;;;9.89;50.08
40372;BME280;28564;53.346;-6.554;2024-03-22T04:11:57;101147.57;;;9.58;50.10
40372;BME280;28564;53.346;-6.554;2024-03-22T04:14:25;101143.65;;;9.82;50.25
40372;BME280;28564;53.346;-6.554;2024-03-22T04:16:53;101143.86;;;9.81;50.18
40372;BME280;28564;53.346;-6.554;2024-03-22T04:19:20;101149.73;;;9.77;50.08
40372;BME280;28564;53.346;-6.554;2024-03-22T04:21:49;101145.27;;;9.75;50.06
40372;BME280;28564;53.346;-6.554;2024-03-22T04:24:16;101143.17;;;9.42;50.03
40372;BME280;28564;53.346;-6.554;2024-03-22T04:26:43;101144.62;;;9.58;50.05
40372;BME280;28564;53.346;-6.554;2024-03-22T04:29:10;101143.81;;;9.50;50.12
40372;BME280;28564;53.346;-6.554;2024-03-22T04:31:38;101143.55;;;9.43;50.13
40372;BME280;28564;53.346;-6.554;2024-03-22T04:34:05;101149.46;;;9.36;50.15
40372;BME280;28564;53.346;-6.554;2024-03-22T04:36:33;101146.44;;;9.33;50.09
40372;BME280;28564;53.346;-6.554;2024-03-22T04:39:00;101142.11;;;9.27;50.18
40372;BME280;28564;53.346;-6.554;2024-03-22T04:41:27;101150.65;;;9.24;50.18
40372;BME280;28564;53.346;-6.554;2024-03-22T04:43:54;101160.52;;;9.17;50.14
40372;BME280;28564;53.346;-6.554;2024-03-22T04:46:22;101154.45;;;9.35;50.10
40372;BME280;28564;53.346;-6.554;2024-03-22T04:48:49;101157.82;;;9.33;50.07
40372;BME280;28564;53.346;-6.554;2024-03-22T04:51:16;101155.03;;;9.07;50.08
40372;BME280;28564;53.346;-6.554;2024-03-22T04:53:43;101159.65;;;8.96;50.08
40372;BME280;28564;53.346;-6.554;2024-03-22T04:56:11;101153.25;;;8.94;50.12
40372;BME280;28564;53.346;-6.554;2024-03-22T04:58:39;101153.10;;;8.89;50.21
40372;BME280;28564;53.346;-6.554;2024-03-22T05:01:06;101154.78;;;9.09;50.12
40372;BME280;28564;53.346;-6.554;2024-03-22T05:03:33;101152.53;;;8.83;50.11
40372;BME280;28564;53.346;-6.554;2024-03-22T05:06:00;101152.78;;;8.79;50.16
40372;BME280;28564;53.346;-6.554;2024-03-22T05:08:28;101161.44;;;8.78;50.10
40372;BME280;28564;53.346;-6.554;2024-03-22T05:10:55;101159.66;;;8.97;50.13
40372;BME280;28564;53.346;-6.554;2024-03-22T05:13:22;101162.81;;;8.88;50.16
40372;BME280;28564;53.346;-6.554;2024-03-22T05:15:49;101157.07;;;8.63;50.14
40372;BME280;28564;53.346;-6.554;2024-03-22T05:18:17;101165.51;;;8.83;50.20
40372;BME280;28564;53.346;-6.554;2024-03-22T05:20:44;101160.57;;;8.78;50.18
40372;BME280;28564;53.346;-6.554;2024-03-22T05:23:11;101154.89;;;8.81;50.08
40372;BME280;28564;53.346;-6.554;2024-03-22T05:25:39;101167.05;;;8.49;50.14
40372;BME280;28564;53.346;-6.554;2024-03-22T05:28:06;101168.08;;;8.50;50.11
40372;BME280;28564;53.346;-6.554;2024-03-22T05:30:33;101162.37;;;8.48;50.15
40372;BME280;28564;53.346;-6.554;2024-03-22T05:33:00;101169.58;;;8.65;50.24
40372;BME280;28564;53.346;-6.554;2024-03-22T05:35:28;101170.18;;;8.61;50.28
40372;BME280;28564;53.346;-6.554;2024-03-22T05:37:55;101182.75;;;8.57;50.39
40372;BME280;28564;53.346;-6.554;2024-03-22T05:40:22;101183.25;;;8.76;50.50
40372;BME280;28564;53.346;-6.554;2024-03-22T05:42:50;101171.69;;;8.69;50.59
40372;BME280;28564;53.346;-6.554;2024-03-22T05:45:17;101172.78;;;8.38;50.77
40372;BME280;28564;53.346;-6.554;2024-03-22T05:47:44;101171.73;;;8.14;50.83
40372;BME280;28564;53.346;-6.554;2024-03-22T05:50:12;101176.93;;;8.26;51.02
40372;BME280;28564;53.346;-6.554;2024-03-22T05:52:39;101176.35;;;8.46;51.07
40372;BME280;28564;53.346;-6.554;2024-03-22T05:55:06;101176.63;;;8.43;51.11
40372;BME280;28564;53.346;-6.554;2024-03-22T05:57:34;101175.16;;;8.39;51.16
40372;BME280;28564;53.346;-6.554;2024-03-22T06:00:01;101182.78;;;8.31;51.32
40372;BME280;28564;53.346;-6.554;2024-03-22T06:02:29;101180.17;;;8.33;51.33
40372;BME280;28564;53.346;-6.554;2024-03-22T06:04:56;101183.79;;;8.26;51.47
40372;BME280;28564;53.346;-6.554;2024-03-22T06:07:23;101183.03;;;8.26;51.46
40372;BME280;28564;53.346;-6.554;2024-03-22T06:09:50;101180.82;;;8.22;51.45
40372;BME280;28564;53.346;-6.554;2024-03-22T06:12:18;101184.16;;;8.17;51.46
40372;BME280;28564;53.346;-6.554;2024-03-22T06:14:45;101188.91;;;8.15;51.55
40372;BME280;28564;53.346;-6.554;2024-03-22T06:17:12;101184.86;;;8.12;51.65
40372;BME280;28564;53.346;-6.554;2024-03-22T06:19:40;101190.46;;;8.09;51.70
40372;BME280;28564;53.346;-6.554;2024-03-22T06:22:07;101184.77;;;8.08;51.73
40372;BME280;28564;53.346;-6.554;2024-03-22T06:24:34;101183.16;;;8.06;51.73
40372;BME280;28564;53.346;-6.554;2024-03-22T06:27:01;101187.57;;;8.04;51.78
40372;BME280;28564;53.346;-6.554;2024-03-22T06:29:28;101185.88;;;8.06;51.79
40372;BME280;28564;53.346;-6.554;2024-03-22T06:31:56;101188.09;;;8.04;51.75
40372;BME280;28564;53.346;-6.554;2024-03-22T06:34:23;101180.74;;;8.05;51.63
40372;BME280;28564;53.346;-6.554;2024-03-22T06:36:50;101184.00;;;8.09;51.56
40372;BME280;28564;53.346;-6.554;2024-03-22T06:39:17;101190.06;;;8.05;51.55
40372;BME280;28564;53.346;-6.554;2024-03-22T06:41:45;101187.29;;;8.07;51.44
40372;BME280;28564;53.346;-6.554;2024-03-22T06:44:12;101189.57;;;8.08;51.36
40372;BME280;28564;53.346;-6.554;2024-03-22T06:46:39;101194.31;;;8.08;51.22
40372;BME280;28564;53.346;-6.554;2024-03-22T06:49:07;101187.26;;;8.07;51.18
40372;BME280;28564;53.346;-6.554;2024-03-22T06:51:34;101188.13;;;8.07;51.02
40372;BME280;28564;53.346;-6.554;2024-03-22T06:54:01;101199.33;;;8.07;50.87
40372;BME280;28564;53.346;-6.554;2024-03-22T06:56:29;101204.56;;;8.13;50.77
40372;BME280;28564;53.346;-6.554;2024-03-22T06:58:55;101209.53;;;8.12;50.64
40372;BME280;28564;53.346;-6.554;2024-03-22T07:01:23;101208.36;;;8.11;50.65
40372;BME280;28564;53.346;-6.554;2024-03-22T07:03:50;101211.06;;;7.98;50.88
40372;BME280;28564;53.346;-6.554;2024-03-22T07:06:18;101214.33;;;8.19;50.59
40372;BME280;28564;53.346;-6.554;2024-03-22T07:08:45;101208.65;;;8.23;50.51
40372;BME280;28564;53.346;-6.554;2024-03-22T07:11:12;101215.42;;;8.26;50.33
40372;BME280;28564;53.346;-6.554;2024-03-22T07:13:40;101214.94;;;8.29;50.32
40372;BME280;28564;53.346;-6.554;2024-03-22T07:16:07;101220.48;;;8.34;50.14
40372;BME280;28564;53.346;-6.554;2024-03-22T07:18:34;101227.43;;;8.15;50.13
40372;BME280;28564;53.346;-6.554;2024-03-22T07:21:02;101223.91;;;8.43;50.02
40372;BME280;28564;53.346;-6.554;2024-03-22T07:23:29;101225.40;;;8.25;50.03
40372;BME280;28564;53.346;-6.554;2024-03-22T07:25:56;101226.19;;;8.50;49.82
40372;BME280;28564;53.346;-6.554;2024-03-22T07:28:24;101223.85;;;8.56;50.03
40372;BME280;28564;53.346;-6.554;2024-03-22T07:30:51;101226.50;;;8.17;49.78
40372;BME280;28564;53.346;-6.554;2024-03-22T07:33:18;101226.68;;;8.38;49.93
40372;BME280;28564;53.346;-6.554;2024-03-22T07:35:45;101232.47;;;8.68;49.79
40372;BME280;28564;53.346;-6.554;2024-03-22T07:38:13;101240.18;;;8.69;50.14
40372;BME280;28564;53.346;-6.554;2024-03-22T07:40:40;101236.98;;;8.56;49.86
40372;BME280;28564;53.346;-6.554;2024-03-22T07:43:07;101241.24;;;8.58;49.89
40372;BME280;28564;53.346;-6.554;2024-03-22T07:45:35;101242.79;;;8.65;49.79
40372;BME280;28564;53.346;-6.554;2024-03-22T07:48:03;101247.68;;;8.47;50.01
40372;BME280;28564;53.346;-6.554;2024-03-22T07:50:30;101244.17;;;8.53;49.81
40372;BME280;28564;53.346;-6.554;2024-03-22T07:52:58;101244.60;;;8.77;49.81
40372;BME280;28564;53.346;-6.554;2024-03-22T07:55:25;101249.08;;;8.62;49.57
40372;BME280;28564;53.346;-6.554;2024-03-22T07:57:54;101256.00;;;8.84;49.63
40372;BME280;28564;53.346;-6.554;2024-03-22T08:00:22;101261.82;;;8.66;49.51
40372;BME280;28564;53.346;-6.554;2024-03-22T08:02:51;101268.86;;;8.93;49.61
40372;BME280;28564;53.346;-6.554;2024-03-22T08:05:18;101259.03;;;8.95;49.60
40372;BME280;28564;53.346;-6.554;2024-03-22T08:07:46;101257.40;;;8.82;49.31
40372;BME280;28564;53.346;-6.554;2024-03-22T08:10:13;101257.25;;;8.88;49.28
40372;BME280;28564;53.346;-6.554;2024-03-22T08:12:40;101264.79;;;8.66;48.86
40372;BME280;28564;53.346;-6.554;2024-03-22T08:15:08;101264.36;;;9.24;48.37
40372;BME280;28564;53.346;-6.554;2024-03-22T08:17:36;101260.26;;;9.34;48.20
40372;BME280;28564;53.346;-6.554;2024-03-22T08:20:04;101264.69;;;9.12;47.84
40372;BME280;28564;53.346;-6.554;2024-03-22T08:22:31;101263.64;;;9.18;47.51
40372;BME280;28564;53.346;-6.554;2024-03-22T08:24:58;101270.18;;;9.43;47.44
40372;BME280;28564;53.346;-6.554;2024-03-22T08:27:26;101268.40;;;9.27;47.26
40372;BME280;28564;53.346;-6.554;2024-03-22T08:29:53;101263.31;;;9.54;46.89
40372;BME280;28564;53.346;-6.554;2024-03-22T08:32:20;101257.68;;;9.43;47.01
40372;BME280;28564;53.346;-6.554;2024-03-22T08:34:48;101276.62;;;9.52;46.46
40372;BME280;28564;53.346;-6.554;2024-03-22T08:37:15;101262.66;;;9.57;46.23
40372;BME280;28564;53.346;-6.554;2024-03-22T08:39:42;101261.76;;;9.63;46.45
40372;BME280;28564;53.346;-6.554;2024-03-22T08:42:10;101266.15;;;9.68;46.40
40372;BME280;28564;53.346;-6.554;2024-03-22T08:44:38;101261.07;;;9.71;45.77
40372;BME280;28564;53.346;-6.554;2024-03-22T08:47:05;101261.44;;;9.70;45.49
40372;BME280;28564;53.346;-6.554;2024-03-22T08:49:33;101262.30;;;9.68;45.55
40372;BME280;28564;53.346;-6.554;2024-03-22T08:52:00;101253.71;;;9.73;45.71
40372;BME280;28564;53.346;-6.554;2024-03-22T08:54:27;101261.17;;;9.80;45.96
40372;BME280;28564;53.346;-6.554;2024-03-22T08:56:54;101263.35;;;9.61;45.55
40372;BME280;28564;53.346;-6.554;2024-03-22T08:59:21;101260.47;;;9.97;45.22
40372;BME280;28564;53.346;-6.554;2024-03-22T09:01:49;101261.80;;;10.01;44.67
40372;BME280;28564;53.346;-6.554;2024-03-22T09:04:16;101258.74;;;10.06;44.87
40372;BME280;28564;53.346;-6.554;2024-03-22T09:06:43;101264.65;;;9.86;44.52
40372;BME280;28564;53.346;-6.554;2024-03-22T09:09:10;101256.78;;;9.91;44.26
40372;BME280;28564;53.346;-6.554;2024-03-22T09:11:38;101263.61;;;9.75;43.69
40372;BME280;28564;53.346;-6.554;2024-03-22T09:14:05;101258.48;;;9.99;43.07
40372;BME280;28564;53.346;-6.554;2024-03-22T09:16:33;101271.34;;;10.06;42.84
40372;BME280;28564;53.346;-6.554;2024-03-22T09:19:00;101253.83;;;10.03;42.54
40372;BME280;28564;53.346;-6.554;2024-03-22T09:21:28;101257.34;;;9.87;42.99
40372;BME280;28564;53.346;-6.554;2024-03-22T09:23:55;101255.47;;;10.14;42.96
40372;BME280;28564;53.346;-6.554;2024-03-22T09:26:22;101252.21;;;9.94;43.22
40372;BME280;28564;53.346;-6.554;2024-03-22T09:28:49;101247.55;;;10.03;43.79
40372;BME280;28564;53.346;-6.554;2024-03-22T09:31:17;101247.15;;;10.10;42.98
40372;BME280;28564;53.346;-6.554;2024-03-22T09:33:44;101250.55;;;10.17;42.40
40372;BME280;28564;53.346;-6.554;2024-03-22T09:36:12;101259.80;;;10.18;41.09
40372;BME280;28564;53.346;-6.554;2024-03-22T09:38:39;101257.21;;;10.22;41.56
40372;BME280;28564;53.346;-6.554;2024-03-22T09:41:06;101281.26;;;10.49;41.33
40372;BME280;28564;53.346;-6.554;2024-03-22T09:43:35;101272.12;;;10.32;39.60
40372;BME280;28564;53.346;-6.554;2024-03-22T09:46:02;101256.62;;;10.54;40.20
40372;BME280;28564;53.346;-6.554;2024-03-22T09:48:29;101256.38;;;10.37;40.75
40372;BME280;28564;53.346;-6.554;2024-03-22T09:50:58;101266.41;;;10.43;40.60
40372;BME280;28564;53.346;-6.554;2024-03-22T09:53:27;101260.24;;;10.49;40.22
40372;BME280;28564;53.346;-6.554;2024-03-22T09:55:58;101255.37;;;10.58;40.13
40372;BME280;28564;53.346;-6.554;2024-03-22T09:58:26;101256.12;;;10.64;39.88
40372;BME280;28564;53.346;-6.554;2024-03-22T10:00:59;101263.92;;;10.65;39.03
40372;BME280;28564;53.346;-6.554;2024-03-22T10:03:26;101266.34;;;10.68;39.23
40372;BME280;28564;53.346;-6.554;2024-03-22T10:05:53;101248.38;;;10.74;39.64
40372;BME280;28564;53.346;-6.554;2024-03-22T10:08:21;101251.50;;;10.43;38.77
40372;BME280;28564;53.346;-6.554;2024-03-22T10:10:48;101255.98;;;10.78;39.34
40372;BME280;28564;53.346;-6.554;2024-03-22T10:13:16;101250.61;;;10.56;37.91
40372;BME280;28564;53.346;-6.554;2024-03-22T10:15:43;101241.46;;;10.84;38.12
40372;BME280;28564;53.346;-6.554;2024-03-22T10:18:10;101237.17;;;10.63;38.89
40372;BME280;28564;53.346;-6.554;2024-03-22T10:20:37;101250.00;;;10.79;38.67
40372;BME280;28564;53.346;-6.554;2024-03-22T10:23:04;101240.75;;;10.84;37.87
40372;BME280;28564;53.346;-6.554;2024-03-22T10:25:32;101232.22;;;11.16;37.84
40372;BME280;28564;53.346;-6.554;2024-03-22T10:28:00;101232.63;;;11.18;38.15
40372;BME280;28564;53.346;-6.554;2024-03-22T10:30:27;101229.70;;;10.95;38.47
40372;BME280;28564;53.346;-6.554;2024-03-22T10:32:55;101237.79;;;10.86;37.49
40372;BME280;28564;53.346;-6.554;2024-03-22T10:35:23;101225.37;;;11.10;37.23
40372;BME280;28564;53.346;-6.554;2024-03-22T10:37:51;101228.26;;;11.37;36.50
40372;BME280;28564;53.346;-6.554;2024-03-22T10:40:19;101232.62;;;11.38;36.71
40372;BME280;28564;53.346;-6.554;2024-03-22T12:21:55;101154.39;;;14.88;32.05
40372;BME280;28564;53.346;-6.554;2024-03-22T12:24:21;101132.05;;;13.23;31.59
40372;BME280;28564;53.346;-6.554;2024-03-22T12:26:48;101129.40;;;13.57;31.38
40372;BME280;28564;53.346;-6.554;2024-03-22T12:29:15;101118.37;;;13.75;31.50
40372;BME280;28564;53.346;-6.554;2024-03-22T12:31:42;101111.50;;;14.18;31.59
40372;BME280;28564;53.346;-6.554;2024-03-22T12:34:08;101112.51;;;14.32;30.34
40372;BME280;28564;53.346;-6.554;2024-03-22T12:36:35;101115.70;;;14.36;29.47
40372;BME280;28564;53.346;-6.554;2024-03-22T12:39:01;101105.17;;;14.35;29.41
40372;BME280;28564;53.346;-6.554;2024-03-22T12:41:28;101104.51;;;14.52;28.90
40372;BME280;28564;53.346;-6.554;2024-03-22T12:43:54;101093.45;;;15.62;28.12
40372;BME280;28564;53.346;-6.554;2024-03-22T12:46:21;101106.18;;;17.76;27.19
40372;BME280;28564;53.346;-6.554;2024-03-22T12:48:49;101105.29;;;18.00;28.01
40372;BME280;28564;53.346;-6.554;2024-03-22T12:51:16;101117.77;;;18.68;25.38
40372;BME280;28564;53.346;-6.554;2024-03-22T12:53:43;101102.33;;;19.44;24.64
40372;BME280;28564;53.346;-6.554;2024-03-22T12:56:10;101146.61;;;20.31;24.66
40372;BME280;28564;53.346;-6.554;2024-03-22T12:58:38;101094.75;;;20.77;24.67
40372;BME280;28564;53.346;-6.554;2024-03-22T13:01:06;101096.28;;;21.42;24.41
40372;BME280;28564;53.346;-6.554;2024-03-22T13:03:35;101096.05;;;22.04;23.91
40372;BME280;28564;53.346;-6.554;2024-03-22T13:06:02;101095.26;;;22.78;23.73
40372;BME280;28564;53.346;-6.554;2024-03-22T13:08:29;101084.18;;;23.78;22.43
40372;BME280;28564;53.346;-6.554;2024-03-22T13:10:56;101089.13;;;23.48;21.67
40372;BME280;28564;53.346;-6.554;2024-03-22T13:13:23;101089.70;;;22.21;22.40
40372;BME280;28564;53.346;-6.554;2024-03-22T13:15:50;101124.89;;;22.17;21.93
40372;BME280;28564;53.346;-6.554;2024-03-22T13:18:17;101088.94;;;21.55;22.05
40372;BME280;28564;53.346;-6.554;2024-03-22T13:20:47;101096.01;;;21.50;21.88
40372;BME280;28564;53.346;-6.554;2024-03-22T13:23:14;101078.22;;;22.46;21.41
40372;BME280;28564;53.346;-6.554;2024-03-22T13:25:42;101085.29;;;23.75;20.29
40372;BME280;28564;53.346;-6.554;2024-03-22T13:28:09;101065.62;;;24.63;19.72
40372;BME280;28564;53.346;-6.554;2024-03-22T13:30:36;101081.46;;;23.98;20.18
40372;BME280;28564;53.346;-6.554;2024-03-22T13:33:04;101103.43;;;24.63;20.23
40372;BME280;28564;53.346;-6.554;2024-03-22T13:35:32;101069.73;;;24.08;20.41
40372;BME280;28564;53.346;-6.554;2024-03-22T13:37:59;101069.10;;;21.91;22.02
40372;BME280;28564;53.346;-6.554;2024-03-22T13:40:27;101066.13;;;20.37;23.33
40372;BME280;28564;53.346;-6.554;2024-03-22T13:42:54;101059.56;;;18.71;25.30
40372;BME280;28564;53.346;-6.554;2024-03-22T13:45:21;101067.66;;;17.40;26.41
40372;BME280;28564;53.346;-6.554;2024-03-22T13:47:48;101054.83;;;17.36;26.23
40372;BME280;28564;53.346;-6.554;2024-03-22T13:50:15;101045.72;;;17.78;25.92
40372;BME280;28564;53.346;-6.554;2024-03-22T13:52:42;101054.45;;;19.26;24.69
40372;BME280;28564;53.346;-6.554;2024-03-22T13:55:09;101031.00;;;19.55;24.02
40372;BME280;28564;53.346;-6.554;2024-03-22T13:57:36;101029.69;;;19.15;24.79
40372;BME280;28564;53.346;-6.554;2024-03-22T14:00:04;101037.11;;;20.56;23.91
40372;BME280;28564;53.346;-6.554;2024-03-22T14:02:32;101049.72;;;21.78;23.20
40372;BME280;28564;53.346;-6.554;2024-03-22T14:04:59;101053.44;;;21.28;22.40
40372;BME280;28564;53.346;-6.554;2024-03-22T14:07:26;101059.64;;;21.44;23.04
40372;BME280;28564;53.346;-6.554;2024-03-22T14:09:53;101045.32;;;22.09;22.45
40372;BME280;28564;53.346;-6.554;2024-03-22T14:12:20;101051.68;;;21.32;23.13
40372;BME280;28564;53.346;-6.554;2024-03-22T14:14:47;101033.12;;;19.88;24.57
40372;BME280;28564;53.346;-6.554;2024-03-22T14:17:14;101051.79;;;18.85;26.25
40372;BME280;28564;53.346;-6.554;2024-03-22T14:19:41;101045.23;;;20.08;25.64
40372;BME280;28564;53.346;-6.554;2024-03-22T14:22:08;101056.50;;;21.67;24.56
40372;BME280;28564;53.346;-6.554;2024-03-22T14:24:35;101048.53;;;21.08;24.35